createdAt,value
2023-12-19T00:01:04.356Z,7.38
2023-12-19T00:04:08.018Z,7.88
2023-12-19T00:07:10.833Z,13.65
2023-12-19T00:10:14.014Z,9.25
2023-12-19T00:13:16.802Z,13.88
2023-12-19T00:16:19.498Z,16.67
2023-12-19T00:19:22.349Z,15.45
2023-12-19T00:22:25.644Z,14.00
2023-12-19T00:25:29.472Z,12.27
2023-12-19T00:28:33.267Z,10.60
2023-12-19T00:31:36.126Z,9.68
2023-12-19T00:34:39.226Z,6.53
2023-12-19T00:37:41.939Z,6.53
2023-12-19T00:40:44.707Z,6.22
2023-12-19T00:43:47.643Z,7.45
2023-12-19T00:46:50.367Z,5.65
2023-12-19T00:49:53.702Z,15.10
2023-12-19T00:52:59.510Z,8.67
2023-12-19T00:56:02.245Z,5.43
2023-12-19T00:59:04.929Z,7.20
2023-12-19T01:02:07.812Z,5.70
2023-12-19T01:05:10.578Z,8.15
2023-12-19T01:08:13.291Z,5.68
2023-12-19T01:11:16.055Z,7.40
2023-12-19T01:14:21.473Z,10.60
2023-12-19T01:17:24.208Z,12.50
2023-12-19T01:20:26.911Z,11.65
2023-12-19T01:23:29.641Z,12.10
2023-12-19T01:26:34.081Z,17.73
2023-12-19T01:29:36.862Z,18.00
2023-12-19T01:32:39.650Z,65.20
2023-12-19T01:35:42.698Z,16.38
2023-12-19T01:38:45.410Z,13.82
2023-12-19T01:41:48.113Z,13.68
2023-12-19T01:45:09.844Z,13.23
2023-12-19T01:48:13.893Z,13.45
2023-12-19T01:51:16.721Z,16.45
2023-12-19T01:54:20.843Z,12.15
2023-12-19T01:57:23.870Z,12.00
2023-12-19T02:00:26.781Z,10.10
2023-12-19T02:03:29.753Z,16.73
2023-12-19T02:06:36.139Z,17.88
2023-12-19T02:09:39.112Z,16.57
2023-12-19T02:12:43.180Z,11.60
2023-12-19T02:15:46.048Z,13.45
2023-12-19T02:19:07.054Z,11.63
2023-12-19T02:22:09.830Z,12.65
2023-12-19T02:25:12.711Z,12.40
2023-12-19T02:28:15.509Z,13.98
2023-12-19T02:31:18.257Z,12.27
2023-12-19T02:34:21.328Z,12.15
2023-12-19T02:37:24.053Z,8.95
2023-12-19T02:40:27.266Z,8.70
2023-12-19T02:43:29.929Z,7.47
2023-12-19T02:46:33.618Z,5.90
2023-12-19T02:49:36.435Z,7.50
2023-12-19T02:52:39.259Z,5.85
2023-12-19T02:55:43.362Z,11.05
2023-12-19T02:58:46.095Z,16.50
2023-12-19T03:01:51.532Z,11.65
2023-12-19T03:04:54.580Z,14.88
2023-12-19T03:07:57.888Z,8.65
2023-12-19T03:11:00.636Z,8.15
2023-12-19T03:14:03.344Z,4.20
2023-12-19T03:17:06.331Z,5.93
2023-12-19T03:20:09.958Z,12.57
2023-12-19T03:23:12.784Z,10.98
2023-12-19T03:26:15.507Z,10.75
2023-12-19T03:29:18.200Z,5.57
2023-12-19T03:32:20.973Z,4.35
2023-12-19T03:35:24.701Z,6.13
2023-12-19T03:38:27.460Z,6.82
2023-12-19T03:41:30.082Z,5.85
2023-12-19T03:44:33.286Z,7.45
2023-12-19T03:47:36.614Z,5.97
2023-12-19T03:50:39.278Z,6.13
2023-12-19T03:53:42.001Z,12.23
2023-12-19T03:56:44.713Z,11.77
2023-12-19T03:59:47.369Z,12.65
2023-12-19T04:02:50.042Z,13.23
2023-12-19T04:05:52.825Z,11.40
2023-12-19T04:08:55.623Z,12.70
2023-12-19T04:12:03.415Z,14.95
2023-12-19T04:15:06.505Z,12.73
2023-12-19T04:18:11.746Z,14.90
2023-12-19T04:21:14.515Z,10.15
2023-12-19T04:24:17.871Z,8.15
2023-12-19T04:27:20.517Z,5.90
2023-12-19T04:30:23.408Z,10.07
2023-12-19T04:33:26.247Z,5.63
2023-12-19T04:36:30.933Z,4.30
2023-12-19T04:39:33.630Z,5.50
2023-12-19T04:42:36.835Z,4.82
2023-12-19T04:45:39.535Z,5.28
2023-12-19T04:48:43.864Z,6.53
2023-12-19T04:51:46.816Z,11.70
2023-12-19T04:54:49.712Z,5.93
2023-12-19T04:57:52.438Z,5.22
2023-12-19T05:00:55.291Z,7.10
2023-12-19T05:03:58.061Z,11.98
2023-12-19T05:07:00.867Z,10.77
2023-12-19T05:10:05.685Z,11.60
2023-12-19T05:13:11.246Z,7.38
2023-12-19T05:16:15.054Z,9.77
2023-12-19T05:19:17.962Z,9.13
2023-12-19T05:22:21.356Z,9.13
2023-12-19T05:25:24.134Z,8.93
2023-12-19T05:28:26.811Z,6.88
2023-12-19T05:31:29.573Z,5.88
2023-12-19T05:34:32.510Z,10.77
2023-12-19T05:37:35.379Z,9.70
2023-12-19T05:40:43.189Z,4.82
2023-12-19T05:43:45.899Z,5.75
2023-12-19T05:46:48.721Z,7.25
2023-12-19T05:49:51.586Z,10.30
2023-12-19T05:52:54.493Z,14.95
2023-12-19T05:55:57.274Z,15.13
2023-12-19T05:59:00.285Z,25.60
2023-12-19T06:02:03.104Z,15.27
2023-12-19T06:05:09.475Z,12.05
2023-12-19T06:08:12.206Z,46.90
2023-12-19T06:11:16.285Z,16.73
2023-12-19T06:14:19.031Z,16.38
2023-12-19T06:17:22.133Z,16.90
2023-12-19T06:20:24.843Z,14.18
2023-12-19T06:23:28.659Z,13.25
2023-12-19T06:26:31.412Z,14.30
2023-12-19T06:29:34.142Z,16.70
2023-12-19T06:32:37.795Z,26.90
2023-12-19T06:35:42.460Z,23.58
2023-12-19T06:38:45.109Z,33.88
2023-12-19T06:41:47.836Z,26.17
2023-12-19T06:44:50.963Z,17.17
2023-12-19T06:47:53.755Z,14.40
2023-12-19T06:50:56.735Z,14.70
2023-12-19T06:53:59.433Z,14.80
2023-12-19T06:57:02.191Z,15.13
2023-12-19T07:00:07.445Z,21.10
2023-12-19T07:03:10.352Z,22.30
2023-12-19T07:06:15.218Z,20.92
2023-12-19T07:09:18.049Z,32.00
2023-12-19T07:12:20.810Z,23.33
2023-12-19T07:15:23.875Z,14.27
2023-12-19T07:18:26.737Z,13.43
2023-12-19T07:21:30.934Z,9.63
2023-12-19T07:24:33.846Z,14.30
2023-12-19T07:27:38.424Z,18.20
2023-12-19T07:30:42.099Z,29.10
2023-12-19T07:33:45.042Z,28.52
2023-12-19T07:36:47.995Z,19.75
2023-12-19T07:39:50.919Z,16.50
2023-12-19T07:42:53.668Z,15.98
2023-12-19T07:45:58.899Z,12.80
2023-12-19T07:49:02.032Z,10.20
2023-12-19T07:52:05.644Z,7.00
2023-12-19T07:55:12.224Z,7.97
2023-12-19T07:58:15.228Z,5.03
2023-12-19T08:01:18.416Z,12.60
2023-12-19T08:04:21.621Z,6.85
2023-12-19T08:07:24.399Z,7.28
2023-12-19T08:10:28.067Z,7.65
2023-12-19T08:13:30.949Z,10.02
2023-12-19T08:16:33.960Z,13.60
2023-12-19T08:19:39.222Z,22.02
2023-12-19T08:22:43.501Z,18.40
2023-12-19T08:25:46.305Z,14.63
2023-12-19T08:28:49.693Z,24.10
2023-12-19T08:31:52.517Z,31.52
2023-12-19T08:34:55.517Z,30.05
2023-12-19T08:37:58.534Z,24.33
2023-12-19T08:41:01.611Z,21.27
2023-12-19T08:44:04.641Z,35.17
2023-12-19T08:47:07.467Z,35.72
2023-12-19T08:50:12.012Z,75.50
2023-12-19T08:53:15.191Z,52.45
2023-12-19T08:56:18.341Z,58.38
2023-12-19T08:59:21.247Z,53.90
2023-12-19T09:02:24.140Z,55.53
2023-12-19T09:05:27.230Z,65.95
2023-12-19T09:08:30.338Z,66.32
2023-12-19T09:11:35.184Z,50.42
2023-12-19T09:14:38.518Z,40.20
2023-12-19T09:17:42.585Z,50.53
2023-12-19T09:20:45.749Z,48.65
2023-12-19T09:23:48.929Z,49.67
2023-12-19T09:26:52.010Z,46.05
2023-12-19T09:29:54.774Z,57.40
2023-12-19T09:32:59.209Z,58.38
2023-12-19T09:36:02.489Z,62.47
2023-12-19T09:39:05.924Z,70.35
2023-12-19T09:42:09.065Z,67.60
2023-12-19T09:45:13.790Z,50.78
2023-12-19T09:48:17.118Z,49.88
2023-12-19T09:51:32.024Z,49.33
2023-12-19T09:54:36.540Z,39.55
2023-12-19T09:57:42.659Z,41.45
2023-12-19T10:00:47.049Z,50.45
2023-12-19T10:03:51.710Z,57.90
2023-12-19T10:07:00.527Z,58.65
2023-12-19T10:10:04.627Z,57.20
2023-12-19T10:13:07.981Z,37.78
2023-12-19T10:16:30.876Z,24.80
2023-12-19T10:19:36.732Z,18.17
2023-12-19T10:22:39.985Z,20.35
2023-12-19T10:25:46.465Z,31.08
2023-12-19T10:28:58.639Z,34.95
2023-12-19T10:32:12.675Z,36.63
2023-12-19T10:35:15.790Z,30.58
2023-12-19T10:38:18.892Z,30.65
2023-12-19T10:41:34.836Z,28.38
2023-12-19T10:44:40.676Z,31.15
2023-12-19T10:47:43.908Z,34.35
2023-12-19T10:50:48.521Z,30.80
2023-12-19T10:54:00.574Z,33.78
2023-12-19T10:57:08.449Z,36.50
2023-12-19T11:00:18.985Z,50.95
2023-12-19T11:03:35.044Z,42.30
2023-12-19T11:06:39.305Z,49.33
2023-12-19T11:09:45.289Z,56.17
2023-12-19T11:12:48.573Z,39.33
2023-12-19T11:15:57.013Z,39.72
2023-12-19T11:19:09.994Z,45.88
2023-12-19T11:22:20.030Z,42.63
2023-12-19T11:25:36.015Z,47.38
2023-12-19T11:28:40.176Z,35.92
2023-12-19T11:31:43.218Z,31.45
2023-12-19T11:34:46.138Z,37.85
2023-12-19T11:37:49.477Z,27.17
2023-12-19T11:40:53.359Z,30.42
2023-12-19T11:43:56.520Z,36.22
2023-12-19T11:47:16.315Z,29.77
2023-12-19T11:50:41.155Z,21.88
2023-12-19T11:53:44.377Z,26.38
2023-12-19T11:56:59.032Z,30.38
2023-12-19T12:00:02.873Z,29.08
2023-12-19T12:03:14.791Z,25.65
2023-12-19T12:06:22.366Z,24.13
2023-12-19T12:09:26.677Z,22.63
2023-12-19T12:12:36.898Z,17.52
2023-12-19T12:15:39.900Z,17.67
2023-12-19T12:18:44.563Z,12.43
2023-12-19T12:21:51.812Z,17.73
2023-12-19T12:28:11.377Z,12.52
2023-12-19T12:31:15.352Z,12.68
2023-12-19T12:34:18.696Z,16.52
2023-12-19T12:37:25.886Z,18.30
2023-12-19T12:40:31.112Z,16.00
2023-12-19T12:43:51.607Z,14.73
2023-12-19T12:46:54.677Z,17.60
2023-12-19T12:50:08.352Z,17.15
2023-12-19T12:53:17.825Z,18.83
2023-12-19T12:56:21.280Z,18.90
2023-12-19T12:59:30.349Z,20.52
2023-12-19T13:02:40.655Z,21.63
2023-12-19T13:05:44.356Z,20.10
2023-12-19T13:08:47.829Z,27.60
2023-12-19T13:11:55.823Z,29.67
2023-12-19T13:14:59.164Z,55.38
2023-12-19T13:18:05.691Z,61.17
2023-12-19T13:21:09.712Z,64.38
2023-12-19T13:24:16.002Z,39.97
2023-12-19T13:27:27.312Z,35.40
2023-12-19T13:30:32.874Z,29.75
2023-12-19T13:33:36.532Z,31.17
2023-12-19T13:36:42.684Z,22.00
2023-12-19T13:39:49.752Z,20.30
2023-12-19T13:42:59.700Z,19.95
2023-12-19T13:46:07.183Z,24.17
2023-12-19T13:49:23.157Z,26.45
2023-12-19T13:52:32.934Z,38.38
2023-12-19T13:55:42.423Z,38.00
2023-12-19T13:58:47.486Z,59.65
2023-12-19T14:01:57.067Z,46.38
2023-12-19T14:05:06.921Z,45.83
2023-12-19T14:08:12.553Z,42.10
2023-12-19T14:11:16.028Z,48.63
2023-12-19T14:14:22.325Z,23.65
2023-12-19T14:17:25.261Z,21.50
2023-12-19T14:20:30.341Z,19.05
2023-12-19T14:23:36.020Z,11.13
2023-12-19T14:26:41.212Z,9.95
2023-12-19T14:29:46.239Z,10.82
2023-12-19T14:32:50.181Z,13.95
2023-12-19T14:35:55.682Z,12.13
2023-12-19T14:38:58.623Z,10.30
2023-12-19T14:42:03.085Z,14.05
2023-12-19T14:45:06.926Z,13.40
2023-12-19T14:48:10.997Z,16.25
2023-12-19T14:51:18.675Z,15.10
2023-12-19T14:54:21.941Z,14.95
2023-12-19T14:57:27.099Z,17.90
2023-12-19T15:00:31.101Z,13.80
2023-12-19T15:03:34.487Z,18.98
2023-12-19T15:06:39.101Z,21.63
2023-12-19T15:09:44.990Z,23.50
2023-12-19T15:12:48.814Z,19.98
2023-12-19T15:15:53.301Z,21.15
2023-12-19T15:18:56.866Z,27.27
2023-12-19T15:22:00.903Z,26.20
2023-12-19T15:25:05.991Z,26.42
2023-12-19T15:28:17.211Z,23.23
2023-12-19T15:31:24.182Z,28.15
2023-12-19T15:34:31.704Z,23.70
2023-12-19T15:37:34.994Z,30.73
2023-12-19T15:40:37.981Z,33.50
2023-12-19T15:43:42.823Z,29.58
2023-12-19T15:46:48.856Z,30.75
2023-12-19T15:49:52.282Z,31.00
2023-12-19T15:52:56.856Z,29.15
2023-12-19T15:56:00.454Z,27.42
2023-12-19T15:59:05.558Z,33.03
2023-12-19T16:02:11.955Z,37.75
2023-12-19T16:05:15.959Z,35.78
2023-12-19T16:08:19.040Z,32.10
2023-12-19T16:11:25.651Z,30.95
2023-12-19T16:14:28.891Z,30.67
2023-12-19T16:17:32.402Z,33.85
2023-12-19T16:20:37.729Z,38.65
2023-12-19T16:23:53.101Z,39.15
2023-12-19T16:27:04.473Z,32.47
2023-12-19T16:30:08.166Z,36.35
2023-12-19T16:33:13.320Z,33.85
2023-12-19T16:36:16.431Z,35.72
2023-12-19T16:39:19.245Z,34.03
2023-12-19T16:42:22.879Z,30.05
2023-12-19T16:45:26.043Z,29.38
2023-12-19T16:48:29.333Z,27.83
2023-12-19T16:51:34.070Z,36.13
2023-12-19T16:54:38.039Z,128.80
2023-12-19T16:57:44.138Z,56.97
2023-12-19T17:00:47.294Z,47.08
2023-12-19T17:03:51.095Z,36.17
2023-12-19T17:06:54.993Z,43.20
2023-12-19T17:09:58.341Z,31.15
2023-12-19T17:13:02.113Z,31.00
2023-12-19T17:16:07.781Z,27.15
2023-12-19T17:19:11.143Z,28.02
2023-12-19T17:22:16.478Z,33.33
2023-12-19T17:25:19.515Z,32.33
2023-12-19T17:28:23.363Z,28.50
2023-12-19T17:31:26.781Z,36.20
2023-12-19T17:34:31.118Z,32.30
2023-12-19T17:37:35.331Z,31.35
2023-12-19T17:40:44.307Z,28.50
2023-12-19T17:43:48.328Z,30.73
2023-12-19T17:46:54.118Z,33.33
2023-12-19T17:49:57.504Z,30.17
2023-12-19T17:53:01.287Z,28.85
2023-12-19T17:56:04.842Z,27.17
2023-12-19T17:59:10.372Z,27.30
2023-12-19T18:02:13.889Z,32.50
2023-12-19T18:05:20.157Z,27.00
2023-12-19T18:08:24.307Z,30.33
2023-12-19T18:11:30.158Z,30.20
2023-12-19T18:14:33.782Z,30.73
2023-12-19T18:17:37.384Z,26.70
2023-12-19T18:20:47.416Z,28.10
2023-12-19T18:23:50.768Z,26.08
2023-12-19T18:26:54.203Z,30.08
2023-12-19T18:29:57.428Z,24.08
2023-12-19T18:33:03.840Z,25.80
2023-12-19T18:36:07.703Z,28.07
2023-12-19T18:39:12.132Z,23.73
2023-12-19T18:42:17.066Z,21.42
2023-12-19T18:45:20.056Z,23.45
2023-12-19T18:48:23.327Z,24.42
2023-12-19T18:51:26.512Z,26.52
2023-12-19T18:54:29.566Z,28.33
2023-12-19T18:57:32.516Z,29.33
2023-12-19T19:00:38.510Z,24.70
2023-12-19T19:03:42.174Z,22.42
2023-12-19T19:06:45.149Z,30.50
2023-12-19T19:09:48.524Z,21.50
2023-12-19T19:12:54.889Z,23.58
2023-12-19T19:15:58.678Z,24.67
2023-12-19T19:19:02.710Z,55.80
2023-12-19T19:22:06.216Z,26.95
2023-12-19T19:25:11.984Z,53.53
2023-12-19T19:28:18.046Z,43.35
2023-12-19T19:31:21.482Z,39.53
2023-12-19T19:34:26.800Z,125.32
2023-12-19T19:37:30.857Z,53.03
2023-12-19T19:40:39.253Z,103.25
2023-12-19T19:43:48.610Z,78.70
2023-12-19T19:46:51.532Z,46.22
2023-12-19T19:49:54.510Z,31.13
2023-12-19T19:53:07.322Z,32.42
2023-12-19T19:56:10.849Z,37.17
2023-12-19T19:59:15.561Z,33.42
2023-12-19T20:02:18.349Z,26.08
2023-12-19T20:05:22.247Z,34.70
2023-12-19T20:08:26.343Z,47.70
2023-12-19T20:11:30.576Z,31.92
2023-12-19T20:14:33.659Z,33.85
2023-12-19T20:17:36.629Z,28.50
2023-12-19T20:20:40.330Z,27.95
2023-12-19T20:23:43.179Z,33.67
2023-12-19T20:26:45.966Z,31.17
2023-12-19T20:29:48.876Z,26.77
2023-12-19T20:32:51.921Z,31.98
2023-12-19T20:35:54.878Z,34.13
2023-12-19T20:38:57.882Z,34.63
2023-12-19T20:42:00.916Z,30.85
2023-12-19T20:45:04.121Z,51.78
2023-12-19T20:48:07.523Z,47.92
2023-12-19T20:51:10.611Z,39.20
2023-12-19T20:54:14.071Z,31.58
2023-12-19T20:57:16.815Z,31.65
2023-12-19T21:00:20.364Z,32.65
2023-12-19T21:03:23.444Z,79.28
2023-12-19T21:06:26.369Z,49.70
2023-12-19T21:09:29.342Z,61.83
2023-12-19T21:12:32.363Z,62.70
2023-12-19T21:15:36.317Z,56.67
2023-12-19T21:18:39.214Z,51.53
2023-12-19T21:21:42.133Z,51.38
2023-12-19T21:24:44.958Z,35.78
2023-12-19T21:27:47.920Z,36.35
2023-12-19T21:30:50.967Z,35.65
2023-12-19T21:33:53.855Z,30.65
2023-12-19T21:36:56.809Z,43.03
2023-12-19T21:40:00.378Z,38.20
2023-12-19T21:43:03.738Z,34.42
2023-12-19T21:46:06.707Z,35.03
2023-12-19T21:49:10.201Z,31.25
2023-12-19T21:52:13.361Z,32.65
2023-12-19T21:55:16.225Z,33.03
2023-12-19T21:58:19.082Z,33.22
2023-12-19T22:01:22.386Z,39.60
2023-12-19T22:04:25.517Z,49.72
2023-12-19T22:07:28.528Z,83.38
2023-12-19T22:10:31.498Z,61.33
2023-12-19T22:13:34.267Z,41.20
2023-12-19T22:16:37.053Z,39.90
2023-12-19T22:19:40.157Z,37.20
2023-12-19T22:22:43.501Z,42.10
2023-12-19T22:25:46.294Z,42.40
2023-12-19T22:28:49.556Z,40.05
2023-12-19T22:31:53.226Z,39.90
2023-12-19T22:34:56.021Z,62.33
2023-12-19T22:38:03.250Z,46.13
2023-12-19T22:41:06.358Z,50.20
2023-12-19T22:44:09.048Z,52.10
2023-12-19T22:47:11.859Z,128.07
2023-12-19T22:50:14.593Z,82.93
2023-12-19T22:53:17.342Z,257.75
2023-12-19T22:56:20.781Z,263.08
2023-12-19T22:59:23.502Z,164.98
2023-12-19T23:02:26.358Z,94.40
2023-12-19T23:05:29.774Z,130.00
2023-12-19T23:08:32.479Z,101.65
2023-12-19T23:11:35.151Z,85.55
2023-12-19T23:14:41.972Z,114.80
2023-12-19T23:17:44.860Z,169.15
2023-12-19T23:20:47.802Z,99.18
2023-12-19T23:23:51.582Z,99.55
2023-12-19T23:26:54.818Z,96.32
2023-12-19T23:29:57.773Z,115.00
2023-12-19T23:33:00.498Z,99.20
2023-12-19T23:36:04.036Z,104.82
2023-12-19T23:39:06.909Z,140.25
2023-12-19T23:42:09.686Z,118.53
2023-12-19T23:45:12.474Z,122.18
2023-12-19T23:48:15.369Z,129.77
2023-12-19T23:51:18.792Z,114.97
2023-12-19T23:54:21.541Z,137.23
2023-12-19T23:57:24.418Z,216.27
